createdAt,value
2018-07-01T00:02:07.829Z,18.33
2018-07-01T00:04:42.346Z,18.31
2018-07-01T00:07:16.945Z,18.30
2018-07-01T00:09:51.460Z,18.30
2018-07-01T00:12:26.142Z,18.28
2018-07-01T00:15:00.567Z,18.20
2018-07-01T00:17:35.188Z,18.23
2018-07-01T00:20:10.498Z,18.18
2018-07-01T00:22:45.072Z,18.11
2018-07-01T00:25:19.467Z,18.11
2018-07-01T00:27:53.929Z,18.07
2018-07-01T00:30:28.560Z,18.04
2018-07-01T00:33:03.101Z,18.02
2018-07-01T00:35:37.660Z,17.97
2018-07-01T00:38:12.185Z,17.96
2018-07-01T00:40:46.773Z,17.94
2018-07-01T00:43:21.337Z,17.89
2018-07-01T00:45:55.952Z,17.88
2018-07-01T00:48:30.652Z,17.84
2018-07-01T00:51:05.252Z,17.82
2018-07-01T00:53:39.836Z,17.80
2018-07-01T00:56:14.544Z,17.80
2018-07-01T00:58:49.192Z,17.82
2018-07-01T01:01:23.830Z,17.74
2018-07-01T01:03:58.349Z,17.63
2018-07-01T01:06:32.888Z,17.61
2018-07-01T01:09:09.334Z,17.57
2018-07-01T01:11:43.877Z,17.66
2018-07-01T01:14:18.279Z,17.67
2018-07-01T01:16:52.829Z,17.62
2018-07-01T01:19:27.480Z,17.59
2018-07-01T01:22:02.048Z,17.56
2018-07-01T01:24:36.544Z,17.52
2018-07-01T01:27:11.199Z,17.54
2018-07-01T01:29:45.657Z,17.50
2018-07-01T01:32:20.079Z,17.44
2018-07-01T01:34:54.728Z,17.32
2018-07-01T01:37:29.296Z,17.36
2018-07-01T01:40:04.281Z,17.37
2018-07-01T01:42:42.452Z,17.38
2018-07-01T01:45:22.176Z,17.31
2018-07-01T01:48:02.222Z,17.26
2018-07-01T01:50:44.229Z,17.29
2018-07-01T01:53:29.213Z,17.26
2018-07-01T01:56:09.190Z,17.19
2018-07-01T01:58:53.937Z,17.12
2018-07-01T02:01:32.630Z,17.16
2018-07-01T02:04:14.809Z,17.15
2018-07-01T02:06:53.574Z,17.16
2018-07-01T02:09:30.023Z,17.19
2018-07-01T02:12:06.685Z,17.21
2018-07-01T02:14:46.641Z,17.14
2018-07-01T02:17:24.379Z,17.14
2018-07-01T02:19:58.814Z,17.15
2018-07-01T02:22:39.247Z,17.14
2018-07-01T02:25:19.385Z,17.13
2018-07-01T02:27:53.923Z,17.11
2018-07-01T02:30:28.482Z,17.07
2018-07-01T02:33:03.139Z,17.08
2018-07-01T02:35:37.672Z,17.04
2018-07-01T02:38:12.193Z,16.99
2018-07-01T02:40:46.716Z,16.95
2018-07-01T02:43:21.256Z,16.96
2018-07-01T02:45:55.897Z,16.86
2018-07-01T02:48:30.547Z,16.87
2018-07-01T02:51:05.089Z,16.91
2018-07-01T02:53:39.657Z,16.89
2018-07-01T02:56:14.187Z,16.84
2018-07-01T02:58:48.669Z,16.89
2018-07-01T03:01:23.063Z,16.85
2018-07-01T03:03:57.589Z,16.89
2018-07-01T03:06:32.325Z,16.86
2018-07-01T03:09:09.679Z,16.86
2018-07-01T03:11:44.239Z,16.88
2018-07-01T03:14:18.890Z,16.88
2018-07-01T03:16:53.432Z,16.84
2018-07-01T03:19:27.908Z,16.80
2018-07-01T03:22:02.477Z,16.76
2018-07-01T03:24:37.136Z,16.78
2018-07-01T03:27:11.588Z,16.74
2018-07-01T03:29:46.107Z,16.72
2018-07-01T03:32:20.784Z,16.69
2018-07-01T03:34:55.198Z,16.68
2018-07-01T03:37:29.784Z,16.69
2018-07-01T03:40:04.570Z,16.67
2018-07-01T03:42:39.219Z,16.68
2018-07-01T03:45:13.888Z,16.62
2018-07-01T03:47:48.258Z,16.58
2018-07-01T03:50:22.597Z,16.58
2018-07-01T03:52:57.018Z,16.57
2018-07-01T03:55:31.402Z,16.57
2018-07-01T03:58:05.945Z,16.66
2018-07-01T04:00:40.612Z,16.72
2018-07-01T04:03:15.091Z,16.79
2018-07-01T04:05:49.720Z,16.78
2018-07-01T04:08:24.123Z,16.88
2018-07-01T04:10:58.667Z,16.91
2018-07-01T04:13:33.379Z,16.92
2018-07-01T04:16:07.914Z,16.90
2018-07-01T04:18:42.410Z,16.90
2018-07-01T04:21:16.959Z,16.88
2018-07-01T04:23:51.481Z,16.86
2018-07-01T04:26:26.092Z,16.86
2018-07-01T04:29:00.684Z,16.84
2018-07-01T04:31:35.352Z,16.87
2018-07-01T04:34:09.932Z,16.88
2018-07-01T04:36:44.571Z,16.96
2018-07-01T04:39:19.360Z,16.95
2018-07-01T04:41:53.987Z,17.11
2018-07-01T04:44:28.410Z,17.24
2018-07-01T04:47:02.889Z,17.24
2018-07-01T04:49:37.624Z,17.34
2018-07-01T04:52:12.255Z,17.47
2018-07-01T04:54:46.911Z,17.55
2018-07-01T04:57:21.410Z,17.57
2018-07-01T04:59:55.913Z,17.65
2018-07-01T05:02:30.528Z,17.67
2018-07-01T05:05:05.072Z,17.71
2018-07-01T05:07:39.775Z,17.77
2018-07-01T05:10:14.424Z,17.87
2018-07-01T05:12:48.977Z,17.98
2018-07-01T05:15:23.627Z,18.03
2018-07-01T05:17:58.180Z,18.02
2018-07-01T05:20:32.843Z,18.11
2018-07-01T05:23:07.325Z,18.19
2018-07-01T05:25:41.783Z,18.33
2018-07-01T05:28:16.349Z,18.32
2018-07-01T05:30:50.794Z,18.38
2018-07-01T05:33:25.274Z,18.45
2018-07-01T05:35:59.902Z,18.30
2018-07-01T05:38:34.365Z,18.47
2018-07-01T05:41:08.786Z,18.63
2018-07-01T05:43:43.488Z,18.66
2018-07-01T05:46:18.096Z,18.85
2018-07-01T05:48:52.460Z,18.84
2018-07-01T05:51:26.904Z,19.01
2018-07-01T05:54:01.575Z,19.10
2018-07-01T05:56:36.083Z,19.10
2018-07-01T05:59:10.689Z,19.09
2018-07-01T06:01:45.269Z,19.32
2018-07-01T06:04:19.842Z,19.31
2018-07-01T06:06:54.556Z,19.31
2018-07-01T06:09:29.215Z,19.40
2018-07-01T06:12:03.799Z,19.41
2018-07-01T06:14:38.458Z,19.52
2018-07-01T06:17:12.907Z,19.70
2018-07-01T06:19:47.398Z,19.67
2018-07-01T06:22:21.995Z,19.81
2018-07-01T06:24:56.484Z,19.90
2018-07-01T06:27:31.245Z,19.84
2018-07-01T06:30:06.628Z,20.04
2018-07-01T06:32:41.087Z,20.15
2018-07-01T06:35:15.753Z,20.14
2018-07-01T06:37:50.391Z,20.27
2018-07-01T06:40:24.898Z,20.67
2018-07-01T06:42:59.497Z,21.54
2018-07-01T06:45:34.127Z,24.02
2018-07-01T06:48:08.747Z,25.29
2018-07-01T06:50:43.377Z,26.75
2018-07-01T06:53:17.808Z,28.39
2018-07-01T06:55:52.200Z,30.10
2018-07-01T06:58:26.740Z,30.51
2018-07-01T07:01:01.278Z,31.32
2018-07-01T07:03:35.727Z,31.91
2018-07-01T07:06:10.142Z,29.64
2018-07-01T07:08:44.755Z,31.99
2018-07-01T07:11:19.318Z,32.29
2018-07-01T07:13:53.918Z,31.23
2018-07-01T07:16:28.303Z,31.58
2018-07-01T07:19:02.704Z,30.80
2018-07-01T07:21:37.385Z,29.68
2018-07-01T07:24:12.134Z,29.88
2018-07-01T07:26:46.595Z,30.54
2018-07-01T07:29:21.315Z,31.04
2018-07-01T07:31:55.983Z,31.67
2018-07-01T07:34:30.387Z,29.64
2018-07-01T07:37:04.933Z,31.82
2018-07-01T07:39:39.358Z,31.68
2018-07-01T07:42:13.918Z,32.35
2018-07-01T07:44:48.577Z,33.58
2018-07-01T07:47:23.016Z,33.52
2018-07-01T07:49:57.483Z,33.93
2018-07-01T07:52:32.219Z,34.37
2018-07-01T07:55:06.688Z,33.59
2018-07-01T07:57:42.719Z,32.88
2018-07-01T08:00:17.262Z,34.78
2018-07-01T08:02:51.667Z,34.43
2018-07-01T08:05:26.219Z,33.97
2018-07-01T08:08:00.648Z,34.87
2018-07-01T08:10:35.043Z,35.76
2018-07-01T08:13:09.616Z,35.54
2018-07-01T08:15:44.016Z,35.44
2018-07-01T08:18:18.520Z,34.30
2018-07-01T08:20:52.863Z,35.45
2018-07-01T08:23:27.288Z,35.20
2018-07-01T08:26:01.700Z,35.62
2018-07-01T08:28:36.132Z,36.25
2018-07-01T08:31:10.509Z,35.04
2018-07-01T08:33:44.988Z,33.30
2018-07-01T08:36:19.340Z,36.27
2018-07-01T08:38:53.871Z,36.53
2018-07-01T08:41:29.051Z,35.37
2018-07-01T08:44:03.471Z,35.70
2018-07-01T08:46:37.903Z,34.53
2018-07-01T08:49:12.297Z,33.94
2018-07-01T08:51:46.786Z,32.10
2018-07-01T08:54:21.689Z,32.62
2018-07-01T08:56:56.176Z,34.07
2018-07-01T08:59:30.632Z,33.50
2018-07-01T09:02:05.242Z,34.89
2018-07-01T09:04:39.837Z,35.00
2018-07-01T09:07:15.554Z,35.94
2018-07-01T09:09:50.552Z,37.49
2018-07-01T09:12:24.945Z,37.28
2018-07-01T09:14:59.392Z,35.07
2018-07-01T09:17:33.861Z,35.16
2018-07-01T09:20:08.357Z,34.79
2018-07-01T09:22:42.928Z,33.31
2018-07-01T09:25:17.376Z,35.60
2018-07-01T09:27:51.840Z,33.28
2018-07-01T09:30:26.288Z,34.17
2018-07-01T09:33:00.639Z,35.39
2018-07-01T09:35:35.050Z,36.73
2018-07-01T09:38:09.424Z,36.31
2018-07-01T09:40:43.906Z,36.08
2018-07-01T09:43:18.256Z,35.70
2018-07-01T09:45:52.595Z,33.50
2018-07-01T09:48:27.015Z,36.11
2018-07-01T09:51:01.411Z,37.35
2018-07-01T09:53:35.880Z,36.22
2018-07-01T09:56:10.230Z,35.78
2018-07-01T09:58:44.635Z,36.90
2018-07-01T10:01:18.920Z,36.09
2018-07-01T10:03:53.567Z,36.99
2018-07-01T10:06:28.342Z,36.99
2018-07-01T10:09:02.626Z,37.04
2018-07-01T10:11:37.514Z,37.54
2018-07-01T10:14:11.747Z,36.61
2018-07-01T10:16:46.199Z,38.74
2018-07-01T10:19:20.482Z,38.19
2018-07-01T10:21:54.840Z,37.88
2018-07-01T10:24:29.264Z,36.42
2018-07-01T10:27:03.651Z,37.49
2018-07-01T10:29:38.178Z,36.02
2018-07-01T10:32:12.516Z,35.81
2018-07-01T10:34:46.900Z,35.24
2018-07-01T10:37:21.332Z,35.66
2018-07-01T10:39:55.773Z,36.60
2018-07-01T10:42:30.177Z,37.81
2018-07-01T10:45:04.880Z,38.51
2018-07-01T10:47:39.282Z,37.63
2018-07-01T10:50:13.651Z,36.83
2018-07-01T10:52:48.075Z,37.28
2018-07-01T10:55:22.643Z,37.03
2018-07-01T10:57:56.920Z,38.81
2018-07-01T11:00:31.354Z,36.87
2018-07-01T11:03:05.614Z,37.29
2018-07-01T11:05:39.967Z,37.80
2018-07-01T11:08:14.270Z,38.54
2018-07-01T11:10:48.721Z,38.29
2018-07-01T11:13:23.109Z,35.54
2018-07-01T11:15:57.614Z,35.70
2018-07-01T11:18:32.326Z,37.04
2018-07-01T11:21:06.736Z,37.85
2018-07-01T11:23:41.058Z,36.82
2018-07-01T11:26:15.578Z,36.70
2018-07-01T11:28:50.019Z,35.81
2018-07-01T11:31:24.348Z,36.65
2018-07-01T11:33:58.628Z,38.57
2018-07-01T11:36:33.042Z,37.05
2018-07-01T11:39:09.031Z,36.23
2018-07-01T11:41:43.278Z,36.41
2018-07-01T11:44:17.712Z,36.66
2018-07-01T11:46:52.179Z,36.27
2018-07-01T11:49:26.556Z,35.01
2018-07-01T11:52:00.930Z,33.81
2018-07-01T11:54:35.379Z,33.49
2018-07-01T11:57:09.750Z,32.84
2018-07-01T11:59:44.139Z,32.01
2018-07-01T12:02:18.369Z,29.97
2018-07-01T12:05:16.210Z,30.12
2018-07-01T12:07:27.218Z,29.47
2018-07-01T12:10:01.468Z,28.32
2018-07-01T12:12:35.751Z,27.96
2018-07-01T12:15:10.191Z,27.54
2018-07-01T12:17:44.576Z,27.23
2018-07-01T12:20:19.160Z,27.24
2018-07-01T12:22:53.817Z,26.80
2018-07-01T12:25:28.177Z,26.95
2018-07-01T12:28:02.558Z,26.81
2018-07-01T12:30:36.961Z,26.60
2018-07-01T12:33:11.539Z,26.28
2018-07-01T12:35:46.097Z,26.31
2018-07-01T12:38:20.601Z,26.53
2018-07-01T12:40:55.002Z,26.54
2018-07-01T12:43:29.380Z,26.48
2018-07-01T12:46:04.076Z,26.36
2018-07-01T12:48:38.510Z,26.21
2018-07-01T12:51:12.940Z,26.17
2018-07-01T12:53:47.563Z,26.15
2018-07-01T12:56:22.015Z,26.22
2018-07-01T12:58:56.635Z,26.27
2018-07-01T13:01:31.204Z,26.29
2018-07-01T13:04:05.705Z,26.26
2018-07-01T13:06:40.072Z,25.98
2018-07-01T13:09:14.596Z,26.23
2018-07-01T13:11:49.146Z,26.18
2018-07-01T13:14:23.802Z,26.17
2018-07-01T13:16:58.547Z,26.22
2018-07-01T13:19:33.136Z,26.21
2018-07-01T13:22:07.808Z,26.34
2018-07-01T13:24:42.409Z,26.22
2018-07-01T13:27:17.078Z,26.26
2018-07-01T13:29:51.639Z,26.53
2018-07-01T13:32:26.149Z,26.59
2018-07-01T13:35:00.674Z,26.74
2018-07-01T13:37:35.251Z,26.84
2018-07-01T13:40:09.723Z,26.86
2018-07-01T13:42:44.353Z,26.81
2018-07-01T13:45:18.748Z,26.72
2018-07-01T13:47:53.175Z,27.05
2018-07-01T13:50:27.787Z,27.04
2018-07-01T13:53:02.236Z,27.33
2018-07-01T13:55:36.708Z,27.06
2018-07-01T13:58:11.389Z,27.25
2018-07-01T14:00:46.075Z,27.18
2018-07-01T14:03:20.575Z,27.17
2018-07-01T14:05:55.164Z,27.74
2018-07-01T14:08:29.649Z,27.71
2018-07-01T14:11:04.264Z,27.75
2018-07-01T14:13:38.743Z,27.56
2018-07-01T14:16:13.265Z,27.75
2018-07-01T14:18:47.773Z,27.92
2018-07-01T14:21:22.363Z,28.25
2018-07-01T14:23:56.888Z,28.53
2018-07-01T14:26:31.430Z,28.90
2018-07-01T14:29:05.928Z,29.35
2018-07-01T14:31:40.319Z,30.00
2018-07-01T14:34:14.936Z,30.78
2018-07-01T14:36:49.480Z,31.01
2018-07-01T14:39:23.992Z,31.39
2018-07-01T14:41:58.546Z,32.22
2018-07-01T14:44:32.996Z,32.53
2018-07-01T14:47:07.336Z,32.87
2018-07-01T14:49:41.931Z,32.85
2018-07-01T14:52:16.494Z,32.76
2018-07-01T14:54:51.012Z,33.17
2018-07-01T14:57:25.655Z,33.89
2018-07-01T15:00:00.079Z,32.37
2018-07-01T15:02:34.458Z,32.84
2018-07-01T15:05:08.882Z,32.40
2018-07-01T15:07:43.296Z,32.80
2018-07-01T15:10:17.764Z,32.79
2018-07-01T15:12:52.158Z,33.38
2018-07-01T15:15:26.622Z,32.80
2018-07-01T15:18:01.174Z,32.15
2018-07-01T15:20:35.604Z,31.00
2018-07-01T15:23:10.231Z,30.31
2018-07-01T15:25:44.698Z,29.58
2018-07-01T15:28:19.226Z,29.25
2018-07-01T15:30:53.858Z,28.73
2018-07-01T15:33:28.347Z,28.27
2018-07-01T15:36:02.907Z,28.08
2018-07-01T15:38:37.442Z,27.94
2018-07-01T15:41:11.907Z,27.67
2018-07-01T15:43:46.434Z,27.40
2018-07-01T15:46:20.981Z,27.29
2018-07-01T15:48:55.573Z,27.29
2018-07-01T15:51:30.084Z,26.91
2018-07-01T15:54:04.600Z,26.73
2018-07-01T15:56:38.927Z,26.69
2018-07-01T15:59:13.610Z,26.77
2018-07-01T16:01:48.223Z,26.28
2018-07-01T16:04:22.797Z,26.42
2018-07-01T16:06:57.285Z,26.38
2018-07-01T16:09:32.841Z,26.54
2018-07-01T16:12:07.378Z,26.45
2018-07-01T16:14:41.908Z,26.33
2018-07-01T16:17:16.367Z,26.29
2018-07-01T16:19:50.848Z,26.35
2018-07-01T16:22:25.390Z,26.14
2018-07-01T16:25:05.259Z,25.96
2018-07-01T16:27:42.503Z,25.98
2018-07-01T16:30:16.843Z,25.98
2018-07-01T16:32:51.418Z,26.01
2018-07-01T16:35:25.857Z,25.88
2018-07-01T16:38:00.485Z,25.88
2018-07-01T16:40:35.100Z,25.72
2018-07-01T16:43:09.619Z,25.69
2018-07-01T16:45:44.225Z,25.58
2018-07-01T16:48:18.798Z,25.64
2018-07-01T16:50:53.349Z,25.59
2018-07-01T16:53:28.117Z,25.65
2018-07-01T16:56:02.500Z,25.59
2018-07-01T16:58:37.094Z,25.58
2018-07-01T17:01:11.582Z,25.48
2018-07-01T17:03:46.240Z,25.60
2018-07-01T17:06:20.909Z,25.53
2018-07-01T17:08:55.468Z,25.53
2018-07-01T17:11:29.929Z,25.45
2018-07-01T17:14:04.461Z,25.34
2018-07-01T17:16:38.925Z,25.36
2018-07-01T17:19:13.367Z,25.36
2018-07-01T17:21:47.776Z,25.27
2018-07-01T17:24:22.224Z,25.33
2018-07-01T17:26:56.686Z,25.35
2018-07-01T17:29:31.298Z,25.29
2018-07-01T17:32:11.447Z,25.28
2018-07-01T17:34:46.038Z,24.94
2018-07-01T17:37:20.471Z,24.95
2018-07-01T17:39:55.089Z,24.93
2018-07-01T17:42:29.698Z,24.93
2018-07-01T17:45:04.303Z,24.93
2018-07-01T17:47:38.965Z,24.89
2018-07-01T17:50:13.414Z,24.91
2018-07-01T17:52:48.034Z,24.65
2018-07-01T17:55:22.602Z,24.71
2018-07-01T17:57:57.135Z,24.70
2018-07-01T18:00:31.625Z,24.59
2018-07-01T18:03:06.155Z,24.65
2018-07-01T18:05:40.719Z,24.67
2018-07-01T18:08:15.285Z,24.61
2018-07-01T18:10:49.799Z,24.51
2018-07-01T18:13:24.230Z,24.49
2018-07-01T18:15:58.643Z,24.38
2018-07-01T18:18:33.208Z,24.28
2018-07-01T18:21:07.689Z,24.27
2018-07-01T18:24:11.129Z,24.23
2018-07-01T18:26:17.096Z,24.05
2018-07-01T18:29:02.563Z,24.01
2018-07-01T18:31:26.351Z,24.00
2018-07-01T18:34:00.834Z,23.89
2018-07-01T18:36:35.359Z,23.87
2018-07-01T18:39:10.246Z,23.92
2018-07-01T18:41:44.585Z,23.86
2018-07-01T18:44:19.044Z,23.74
2018-07-01T18:46:53.382Z,23.50
2018-07-01T18:49:27.935Z,23.59
2018-07-01T18:52:02.519Z,23.53
2018-07-01T18:54:37.123Z,23.46
2018-07-01T18:57:11.508Z,23.45
2018-07-01T18:59:45.955Z,23.19
2018-07-01T19:02:20.492Z,23.14
2018-07-01T19:04:55.130Z,22.97
2018-07-01T19:07:29.714Z,22.96
2018-07-01T19:10:04.257Z,22.82
2018-07-01T19:12:38.975Z,22.76
2018-07-01T19:15:13.644Z,22.61
2018-07-01T19:17:48.419Z,22.56
2018-07-01T19:20:23.035Z,22.61
2018-07-01T19:22:57.563Z,22.59
2018-07-01T19:25:32.273Z,22.57
2018-07-01T19:28:06.813Z,22.56
2018-07-01T19:30:41.391Z,22.45
2018-07-01T19:33:15.840Z,22.40
2018-07-01T19:35:50.268Z,22.39
2018-07-01T19:38:24.734Z,22.12
2018-07-01T19:40:59.384Z,22.03
2018-07-01T19:43:34.032Z,21.83
2018-07-01T19:46:08.794Z,21.81
2018-07-01T19:48:43.307Z,21.62
2018-07-01T19:51:17.848Z,21.57
2018-07-01T19:53:52.616Z,21.43
2018-07-01T19:56:27.278Z,21.35
2018-07-01T19:59:01.884Z,21.26
2018-07-01T20:01:36.381Z,21.12
2018-07-01T20:04:10.936Z,20.99
2018-07-01T20:06:45.514Z,20.87
2018-07-01T20:09:20.055Z,20.81
2018-07-01T20:11:54.449Z,20.74
2018-07-01T20:14:29.095Z,20.77
2018-07-01T20:17:03.534Z,20.83
2018-07-01T20:19:38.023Z,20.82
2018-07-01T20:22:12.390Z,20.77
2018-07-01T20:24:46.777Z,20.75
2018-07-01T20:27:21.302Z,20.66
2018-07-01T20:29:55.714Z,20.45
2018-07-01T20:32:30.069Z,20.41
2018-07-01T20:35:04.656Z,20.38
2018-07-01T20:37:39.284Z,20.19
2018-07-01T20:40:13.762Z,20.20
2018-07-01T20:42:48.398Z,20.26
2018-07-01T20:45:22.863Z,20.18
2018-07-01T20:47:57.259Z,19.93
2018-07-01T20:50:32.064Z,19.88
2018-07-01T20:53:06.611Z,19.96
2018-07-01T20:55:41.106Z,19.84
2018-07-01T20:58:15.688Z,19.77
2018-07-01T21:00:50.336Z,19.77
2018-07-01T21:03:25.055Z,19.76
2018-07-01T21:05:59.536Z,19.72
2018-07-01T21:08:33.867Z,19.62
2018-07-01T21:11:08.343Z,19.58
2018-07-01T21:13:42.917Z,19.67
2018-07-01T21:16:17.408Z,19.62
2018-07-01T21:18:52.142Z,19.65
2018-07-01T21:21:26.879Z,19.58
2018-07-01T21:24:01.390Z,19.56
2018-07-01T21:26:35.831Z,19.46
2018-07-01T21:29:10.883Z,19.31
2018-07-01T21:31:45.456Z,19.28
2018-07-01T21:34:19.907Z,19.23
2018-07-01T21:36:54.247Z,19.29
2018-07-01T21:39:28.746Z,19.24
2018-07-01T21:42:03.296Z,19.14
2018-07-01T21:44:37.658Z,19.10
2018-07-01T21:47:12.009Z,19.05
2018-07-01T21:49:46.536Z,18.97
2018-07-01T21:52:20.980Z,18.96
2018-07-01T21:54:55.404Z,18.90
2018-07-01T21:57:29.885Z,18.93
2018-07-01T22:00:05.479Z,18.84
2018-07-01T22:02:40.176Z,18.78
2018-07-01T22:05:14.711Z,18.80
2018-07-01T22:07:49.350Z,18.79
2018-07-01T22:10:35.927Z,18.75
2018-07-01T22:14:23.632Z,18.77
2018-07-01T22:16:58.509Z,18.70
2018-07-01T22:19:33.239Z,18.67
2018-07-01T22:22:07.866Z,18.69
2018-07-01T22:24:42.350Z,18.64
2018-07-01T22:27:16.768Z,18.56
2018-07-01T22:29:51.339Z,18.50
2018-07-01T22:32:26.025Z,18.48
2018-07-01T22:35:00.504Z,18.44
2018-07-01T22:37:35.110Z,18.40
2018-07-01T22:40:09.603Z,18.34
2018-07-01T22:42:44.248Z,18.26
2018-07-01T22:45:18.848Z,18.27
2018-07-01T22:47:53.382Z,18.20
2018-07-01T22:50:28.915Z,18.15
2018-07-01T22:53:03.576Z,18.12
2018-07-01T22:55:38.205Z,18.11
2018-07-01T22:58:12.859Z,17.98
2018-07-01T23:00:47.540Z,17.96
2018-07-01T23:03:22.092Z,17.97
2018-07-01T23:05:56.624Z,17.97
2018-07-01T23:08:31.225Z,17.94
2018-07-01T23:11:05.843Z,17.96
2018-07-01T23:13:40.351Z,17.89
2018-07-01T23:16:14.928Z,17.81
2018-07-01T23:18:49.565Z,17.75
2018-07-01T23:21:24.159Z,17.77
2018-07-01T23:23:58.575Z,17.73
2018-07-01T23:26:33.017Z,17.70
2018-07-01T23:29:07.447Z,17.58
2018-07-01T23:31:41.923Z,17.59
2018-07-01T23:34:16.379Z,17.54
2018-07-01T23:36:51.028Z,17.48
2018-07-01T23:39:25.628Z,17.51
2018-07-01T23:42:00.161Z,17.54
2018-07-01T23:44:34.643Z,17.51
2018-07-01T23:47:09.275Z,17.52
2018-07-01T23:49:43.895Z,17.53
2018-07-01T23:52:18.975Z,17.53
2018-07-01T23:54:53.516Z,17.43
2018-07-01T23:57:28.154Z,17.41
